Winton Post Office, Australia
Current Conditions -  °F | °C
As of 2:00 AM on Saturday 22 Nov 2014 (Local Time) from YLRE Reporting Station
Clear Clear  
Wind Chill: 84°   Ceiling: Unl
Heat Index: 84°   Visibility: 6mi
Dew Point: 54°   Wind: 5mph
Humidity: 35%   Direction: 360°N
Pressure: 29.8"   Gusts: NA
Location:  22.38°S, 143.03°E
Report Text: YLRE 211600Z AUTO 36004KT 9999 // NCD 29/12 Q1009
Loading
Personal Weather Stations






























Interactive Weather Map New forecast layout! Learn more

10-Day Weather Forecast

Advertisements
Track Severe Weather on mobile